sensor_id;sensor_type;location;lat;lon;timestamp;P1;durP1;ratioP1;P2;durP2;ratioP2
66628;SDS011;53532;53.084;6.352;2022-10-15T00:02:18;71.40;;;40.83;;
66628;SDS011;53532;53.084;6.352;2022-10-15T00:04:43;81.30;;;41.80;;
66628;SDS011;53532;53.084;6.352;2022-10-15T00:07:09;99.03;;;44.45;;
66628;SDS011;53532;53.084;6.352;2022-10-15T00:09:36;90.03;;;44.10;;
66628;SDS011;53532;53.084;6.352;2022-10-15T00:12:02;72.78;;;41.17;;
66628;SDS011;53532;53.084;6.352;2022-10-15T00:14:28;83.80;;;42.60;;
66628;SDS011;53532;53.084;6.352;2022-10-15T00:16:54;84.15;;;43.92;;
66628;SDS011;53532;53.084;6.352;2022-10-15T00:19:20;85.70;;;44.42;;
66628;SDS011;53532;53.084;6.352;2022-10-15T00:21:45;81.75;;;43.55;;
66628;SDS011;53532;53.084;6.352;2022-10-15T00:24:11;73.28;;;43.35;;
66628;SDS011;53532;53.084;6.352;2022-10-15T00:26:38;79.00;;;42.85;;
66628;SDS011;53532;53.084;6.352;2022-10-15T00:29:04;83.70;;;43.95;;
66628;SDS011;53532;53.084;6.352;2022-10-15T00:31:30;73.18;;;43.58;;
66628;SDS011;53532;53.084;6.352;2022-10-15T00:33:57;88.05;;;46.00;;
66628;SDS011;53532;53.084;6.352;2022-10-15T00:36:25;70.93;;;42.85;;
66628;SDS011;53532;53.084;6.352;2022-10-15T00:38:52;84.88;;;45.35;;
66628;SDS011;53532;53.084;6.352;2022-10-15T00:41:19;80.43;;;45.15;;
66628;SDS011;53532;53.084;6.352;2022-10-15T00:43:49;79.38;;;44.08;;
66628;SDS011;53532;53.084;6.352;2022-10-15T00:46:17;94.30;;;44.55;;
66628;SDS011;53532;53.084;6.352;2022-10-15T00:48:49;81.65;;;44.92;;
66628;SDS011;53532;53.084;6.352;2022-10-15T00:51:18;77.65;;;43.83;;
66628;SDS011;53532;53.084;6.352;2022-10-15T00:53:47;80.30;;;43.58;;
66628;SDS011;53532;53.084;6.352;2022-10-15T00:56:14;74.55;;;41.78;;
66628;SDS011;53532;53.084;6.352;2022-10-15T00:58:42;94.53;;;44.67;;
66628;SDS011;53532;53.084;6.352;2022-10-15T01:01:09;98.70;;;44.38;;
66628;SDS011;53532;53.084;6.352;2022-10-15T01:03:35;79.90;;;41.95;;
66628;SDS011;53532;53.084;6.352;2022-10-15T01:06:01;83.65;;;42.90;;
66628;SDS011;53532;53.084;6.352;2022-10-15T01:08:28;80.82;;;42.53;;
66628;SDS011;53532;53.084;6.352;2022-10-15T01:10:57;84.78;;;41.38;;
66628;SDS011;53532;53.084;6.352;2022-10-15T01:13:33;64.32;;;38.92;;
66628;SDS011;53532;53.084;6.352;2022-10-15T01:16:07;70.50;;;40.42;;
66628;SDS011;53532;53.084;6.352;2022-10-15T01:18:41;69.32;;;39.35;;
66628;SDS011;53532;53.084;6.352;2022-10-15T01:21:14;69.38;;;40.03;;
66628;SDS011;53532;53.084;6.352;2022-10-15T01:26:52;65.45;;;38.80;;
66628;SDS011;53532;53.084;6.352;2022-10-15T01:29:40;66.68;;;38.83;;
66628;SDS011;53532;53.084;6.352;2022-10-15T01:32:29;72.25;;;39.65;;
66628;SDS011;53532;53.084;6.352;2022-10-15T01:35:01;69.32;;;39.03;;
66628;SDS011;53532;53.084;6.352;2022-10-15T01:37:35;63.95;;;37.67;;
66628;SDS011;53532;53.084;6.352;2022-10-15T01:40:04;73.88;;;39.13;;
66628;SDS011;53532;53.084;6.352;2022-10-15T01:42:33;66.20;;;37.30;;
66628;SDS011;53532;53.084;6.352;2022-10-15T01:45:08;70.35;;;38.10;;
66628;SDS011;53532;53.084;6.352;2022-10-15T01:47:38;62.30;;;36.35;;
66628;SDS011;53532;53.084;6.352;2022-10-15T01:50:08;73.60;;;38.78;;
66628;SDS011;53532;53.084;6.352;2022-10-15T01:52:35;69.68;;;37.70;;
66628;SDS011;53532;53.084;6.352;2022-10-15T01:55:04;69.57;;;36.90;;
66628;SDS011;53532;53.084;6.352;2022-10-15T01:57:33;60.28;;;35.90;;
66628;SDS011;53532;53.084;6.352;2022-10-15T02:00:01;68.43;;;37.90;;
66628;SDS011;53532;53.084;6.352;2022-10-15T02:02:29;63.20;;;36.85;;
66628;SDS011;53532;53.084;6.352;2022-10-15T02:04:56;69.95;;;36.58;;
66628;SDS011;53532;53.084;6.352;2022-10-15T02:07:22;64.85;;;37.78;;
66628;SDS011;53532;53.084;6.352;2022-10-15T02:09:56;68.22;;;36.25;;
66628;SDS011;53532;53.084;6.352;2022-10-15T02:12:30;77.77;;;39.70;;
66628;SDS011;53532;53.084;6.352;2022-10-15T02:15:05;73.93;;;39.22;;
66628;SDS011;53532;53.084;6.352;2022-10-15T02:17:38;63.70;;;37.15;;
66628;SDS011;53532;53.084;6.352;2022-10-15T02:20:10;71.53;;;38.88;;
66628;SDS011;53532;53.084;6.352;2022-10-15T02:22:40;61.45;;;36.95;;
66628;SDS011;53532;53.084;6.352;2022-10-15T02:25:13;84.05;;;39.42;;
66628;SDS011;53532;53.084;6.352;2022-10-15T02:27:42;71.60;;;38.50;;
66628;SDS011;53532;53.084;6.352;2022-10-15T02:30:11;66.40;;;37.30;;
66628;SDS011;53532;53.084;6.352;2022-10-15T02:32:38;73.15;;;38.75;;
66628;SDS011;53532;53.084;6.352;2022-10-15T02:35:06;65.70;;;37.28;;
66628;SDS011;53532;53.084;6.352;2022-10-15T02:37:35;65.05;;;38.22;;
66628;SDS011;53532;53.084;6.352;2022-10-15T02:40:04;62.60;;;36.10;;
66628;SDS011;53532;53.084;6.352;2022-10-15T02:42:30;74.03;;;38.53;;
66628;SDS011;53532;53.084;6.352;2022-10-15T02:44:56;67.53;;;36.95;;
66628;SDS011;53532;53.084;6.352;2022-10-15T02:47:21;60.17;;;37.05;;
66628;SDS011;53532;53.084;6.352;2022-10-15T02:49:47;69.43;;;37.72;;
66628;SDS011;53532;53.084;6.352;2022-10-15T02:52:13;69.95;;;37.65;;
66628;SDS011;53532;53.084;6.352;2022-10-15T02:54:40;64.45;;;36.15;;
66628;SDS011;53532;53.084;6.352;2022-10-15T02:57:06;63.53;;;36.40;;
66628;SDS011;53532;53.084;6.352;2022-10-15T02:59:32;62.20;;;36.90;;
66628;SDS011;53532;53.084;6.352;2022-10-15T03:01:57;55.13;;;35.20;;
66628;SDS011;53532;53.084;6.352;2022-10-15T03:04:23;67.43;;;36.80;;
66628;SDS011;53532;53.084;6.352;2022-10-15T03:06:49;65.07;;;37.78;;
66628;SDS011;53532;53.084;6.352;2022-10-15T03:09:15;61.40;;;37.53;;
66628;SDS011;53532;53.084;6.352;2022-10-15T03:11:42;61.28;;;38.15;;
66628;SDS011;53532;53.084;6.352;2022-10-15T03:14:08;63.72;;;35.70;;
66628;SDS011;53532;53.084;6.352;2022-10-15T03:16:34;65.43;;;38.28;;
66628;SDS011;53532;53.084;6.352;2022-10-15T03:19:00;67.85;;;37.25;;
66628;SDS011;53532;53.084;6.352;2022-10-15T03:21:25;66.40;;;37.25;;
66628;SDS011;53532;53.084;6.352;2022-10-15T03:23:54;66.93;;;37.60;;
66628;SDS011;53532;53.084;6.352;2022-10-15T03:26:20;70.00;;;38.10;;
66628;SDS011;53532;53.084;6.352;2022-10-15T03:28:47;64.47;;;38.90;;
66628;SDS011;53532;53.084;6.352;2022-10-15T03:31:13;66.43;;;36.83;;
66628;SDS011;53532;53.084;6.352;2022-10-15T03:33:39;71.38;;;38.75;;
66628;SDS011;53532;53.084;6.352;2022-10-15T03:36:05;69.25;;;37.28;;
66628;SDS011;53532;53.084;6.352;2022-10-15T03:38:32;70.32;;;37.90;;
66628;SDS011;53532;53.084;6.352;2022-10-15T03:40:58;80.00;;;37.60;;
66628;SDS011;53532;53.084;6.352;2022-10-15T03:43:23;84.13;;;39.75;;
66628;SDS011;53532;53.084;6.352;2022-10-15T03:45:51;77.95;;;38.65;;
66628;SDS011;53532;53.084;6.352;2022-10-15T03:48:17;67.05;;;37.70;;
66628;SDS011;53532;53.084;6.352;2022-10-15T03:50:44;86.05;;;39.28;;
66628;SDS011;53532;53.084;6.352;2022-10-15T03:53:10;67.40;;;38.03;;
66628;SDS011;53532;53.084;6.352;2022-10-15T03:55:36;80.30;;;38.20;;
66628;SDS011;53532;53.084;6.352;2022-10-15T03:58:02;82.32;;;37.67;;
66628;SDS011;53532;53.084;6.352;2022-10-15T04:00:28;67.72;;;37.25;;
66628;SDS011;53532;53.084;6.352;2022-10-15T04:02:55;74.18;;;37.28;;
66628;SDS011;53532;53.084;6.352;2022-10-15T04:05:21;67.20;;;36.38;;
66628;SDS011;53532;53.084;6.352;2022-10-15T04:07:46;86.43;;;38.03;;
66628;SDS011;53532;53.084;6.352;2022-10-15T04:10:12;79.90;;;37.78;;
66628;SDS011;53532;53.084;6.352;2022-10-15T04:12:38;73.43;;;35.55;;
66628;SDS011;53532;53.084;6.352;2022-10-15T04:15:04;84.90;;;38.22;;
66628;SDS011;53532;53.084;6.352;2022-10-15T04:17:30;62.42;;;34.92;;
66628;SDS011;53532;53.084;6.352;2022-10-15T04:19:57;73.90;;;37.08;;
66628;SDS011;53532;53.084;6.352;2022-10-15T04:22:23;68.13;;;36.20;;
66628;SDS011;53532;53.084;6.352;2022-10-15T04:24:49;65.60;;;37.45;;
66628;SDS011;53532;53.084;6.352;2022-10-15T04:27:15;62.75;;;35.58;;
66628;SDS011;53532;53.084;6.352;2022-10-15T04:29:40;73.40;;;37.20;;
66628;SDS011;53532;53.084;6.352;2022-10-15T04:32:06;71.25;;;37.08;;
66628;SDS011;53532;53.084;6.352;2022-10-15T04:34:34;64.18;;;35.40;;
66628;SDS011;53532;53.084;6.352;2022-10-15T04:37:01;66.85;;;36.80;;
66628;SDS011;53532;53.084;6.352;2022-10-15T04:39:27;64.47;;;37.13;;
66628;SDS011;53532;53.084;6.352;2022-10-15T04:41:52;70.03;;;35.35;;
66628;SDS011;53532;53.084;6.352;2022-10-15T04:44:18;64.43;;;35.45;;
66628;SDS011;53532;53.084;6.352;2022-10-15T04:46:44;65.95;;;35.67;;
66628;SDS011;53532;53.084;6.352;2022-10-15T04:49:09;66.55;;;35.90;;
66628;SDS011;53532;53.084;6.352;2022-10-15T04:51:35;63.55;;;35.70;;
66628;SDS011;53532;53.084;6.352;2022-10-15T04:54:03;65.68;;;36.60;;
66628;SDS011;53532;53.084;6.352;2022-10-15T04:56:29;71.22;;;36.42;;
66628;SDS011;53532;53.084;6.352;2022-10-15T04:58:54;70.95;;;37.72;;
66628;SDS011;53532;53.084;6.352;2022-10-15T05:01:20;69.40;;;37.83;;
66628;SDS011;53532;53.084;6.352;2022-10-15T05:03:47;68.75;;;38.35;;
66628;SDS011;53532;53.084;6.352;2022-10-15T05:06:13;69.97;;;37.03;;
66628;SDS011;53532;53.084;6.352;2022-10-15T05:08:41;71.88;;;38.47;;
66628;SDS011;53532;53.084;6.352;2022-10-15T05:11:09;69.45;;;38.22;;
66628;SDS011;53532;53.084;6.352;2022-10-15T05:13:36;74.38;;;39.60;;
66628;SDS011;53532;53.084;6.352;2022-10-15T05:16:07;76.88;;;41.15;;
66628;SDS011;53532;53.084;6.352;2022-10-15T05:18:34;85.38;;;41.40;;
66628;SDS011;53532;53.084;6.352;2022-10-15T05:20:59;84.03;;;41.30;;
66628;SDS011;53532;53.084;6.352;2022-10-15T05:23:25;80.28;;;42.72;;
66628;SDS011;53532;53.084;6.352;2022-10-15T05:25:51;80.00;;;42.15;;
66628;SDS011;53532;53.084;6.352;2022-10-15T05:28:19;81.68;;;42.05;;
66628;SDS011;53532;53.084;6.352;2022-10-15T05:30:44;92.15;;;43.05;;
66628;SDS011;53532;53.084;6.352;2022-10-15T05:33:10;97.75;;;44.08;;
66628;SDS011;53532;53.084;6.352;2022-10-15T05:35:36;86.68;;;43.55;;
66628;SDS011;53532;53.084;6.352;2022-10-15T05:38:02;88.43;;;44.70;;
66628;SDS011;53532;53.084;6.352;2022-10-15T05:40:28;88.05;;;44.03;;
66628;SDS011;53532;53.084;6.352;2022-10-15T05:42:54;93.97;;;43.22;;
66628;SDS011;53532;53.084;6.352;2022-10-15T05:45:21;95.07;;;44.13;;
66628;SDS011;53532;53.084;6.352;2022-10-15T05:47:47;92.25;;;45.97;;
66628;SDS011;53532;53.084;6.352;2022-10-15T05:50:13;93.05;;;46.45;;
66628;SDS011;53532;53.084;6.352;2022-10-15T05:52:39;94.47;;;47.10;;
66628;SDS011;53532;53.084;6.352;2022-10-15T05:55:05;96.97;;;46.25;;
66628;SDS011;53532;53.084;6.352;2022-10-15T05:57:31;104.10;;;47.95;;
66628;SDS011;53532;53.084;6.352;2022-10-15T05:59:57;92.43;;;47.40;;
66628;SDS011;53532;53.084;6.352;2022-10-15T06:02:24;90.00;;;45.40;;
66628;SDS011;53532;53.084;6.352;2022-10-15T06:04:50;100.82;;;47.35;;
66628;SDS011;53532;53.084;6.352;2022-10-15T06:07:17;110.68;;;49.28;;
66628;SDS011;53532;53.084;6.352;2022-10-15T06:09:44;108.47;;;48.58;;
66628;SDS011;53532;53.084;6.352;2022-10-15T06:12:09;106.10;;;49.08;;
66628;SDS011;53532;53.084;6.352;2022-10-15T06:14:35;110.28;;;48.53;;
66628;SDS011;53532;53.084;6.352;2022-10-15T06:17:01;111.15;;;47.75;;
66628;SDS011;53532;53.084;6.352;2022-10-15T06:19:28;106.72;;;49.05;;
66628;SDS011;53532;53.084;6.352;2022-10-15T06:21:54;105.63;;;48.30;;
66628;SDS011;53532;53.084;6.352;2022-10-15T06:24:19;98.30;;;48.38;;
66628;SDS011;53532;53.084;6.352;2022-10-15T06:26:45;105.22;;;49.10;;
66628;SDS011;53532;53.084;6.352;2022-10-15T06:29:11;97.80;;;46.97;;
66628;SDS011;53532;53.084;6.352;2022-10-15T06:31:36;100.93;;;46.85;;
66628;SDS011;53532;53.084;6.352;2022-10-15T06:34:02;97.35;;;47.47;;
66628;SDS011;53532;53.084;6.352;2022-10-15T06:36:29;117.43;;;48.83;;
66628;SDS011;53532;53.084;6.352;2022-10-15T06:38:55;98.50;;;48.15;;
66628;SDS011;53532;53.084;6.352;2022-10-15T06:41:21;99.80;;;47.53;;
66628;SDS011;53532;53.084;6.352;2022-10-15T06:43:47;107.65;;;47.80;;
66628;SDS011;53532;53.084;6.352;2022-10-15T06:46:13;101.72;;;47.40;;
66628;SDS011;53532;53.084;6.352;2022-10-15T06:48:39;98.57;;;46.70;;
66628;SDS011;53532;53.084;6.352;2022-10-15T06:51:05;96.35;;;47.00;;
66628;SDS011;53532;53.084;6.352;2022-10-15T06:53:32;106.10;;;48.42;;
66628;SDS011;53532;53.084;6.352;2022-10-15T06:55:58;129.27;;;48.88;;
66628;SDS011;53532;53.084;6.352;2022-10-15T06:58:25;124.95;;;49.22;;
66628;SDS011;53532;53.084;6.352;2022-10-15T07:00:51;107.07;;;46.92;;
66628;SDS011;53532;53.084;6.352;2022-10-15T07:03:17;105.13;;;48.58;;
66628;SDS011;53532;53.084;6.352;2022-10-15T07:05:43;103.35;;;47.35;;
66628;SDS011;53532;53.084;6.352;2022-10-15T07:08:09;123.00;;;49.40;;
66628;SDS011;53532;53.084;6.352;2022-10-15T07:10:36;112.65;;;48.97;;
66628;SDS011;53532;53.084;6.352;2022-10-15T07:13:01;115.90;;;49.42;;
66628;SDS011;53532;53.084;6.352;2022-10-15T07:15:27;105.28;;;47.40;;
66628;SDS011;53532;53.084;6.352;2022-10-15T07:17:54;98.45;;;46.42;;
66628;SDS011;53532;53.084;6.352;2022-10-15T07:20:26;106.57;;;47.80;;
66628;SDS011;53532;53.084;6.352;2022-10-15T07:22:55;102.55;;;48.00;;
66628;SDS011;53532;53.084;6.352;2022-10-15T07:25:21;127.70;;;49.50;;
66628;SDS011;53532;53.084;6.352;2022-10-15T07:27:48;102.82;;;46.92;;
66628;SDS011;53532;53.084;6.352;2022-10-15T07:30:14;113.18;;;49.13;;
66628;SDS011;53532;53.084;6.352;2022-10-15T07:32:43;99.72;;;46.85;;
66628;SDS011;53532;53.084;6.352;2022-10-15T07:35:09;101.40;;;48.85;;
66628;SDS011;53532;53.084;6.352;2022-10-15T07:37:35;102.50;;;46.95;;
66628;SDS011;53532;53.084;6.352;2022-10-15T07:40:00;109.93;;;48.60;;
66628;SDS011;53532;53.084;6.352;2022-10-15T07:42:26;103.35;;;47.10;;
66628;SDS011;53532;53.084;6.352;2022-10-15T07:44:53;97.75;;;46.58;;
66628;SDS011;53532;53.084;6.352;2022-10-15T07:47:19;93.10;;;46.50;;
66628;SDS011;53532;53.084;6.352;2022-10-15T07:49:45;95.68;;;47.10;;
66628;SDS011;53532;53.084;6.352;2022-10-15T07:52:11;100.60;;;46.45;;
66628;SDS011;53532;53.084;6.352;2022-10-15T07:54:36;101.68;;;48.72;;
66628;SDS011;53532;53.084;6.352;2022-10-15T07:57:02;103.15;;;46.83;;
66628;SDS011;53532;53.084;6.352;2022-10-15T07:59:30;100.57;;;46.42;;
66628;SDS011;53532;53.084;6.352;2022-10-15T08:01:58;101.95;;;47.95;;
66628;SDS011;53532;53.084;6.352;2022-10-15T08:04:23;93.82;;;45.65;;
66628;SDS011;53532;53.084;6.352;2022-10-15T08:06:49;88.13;;;45.78;;
66628;SDS011;53532;53.084;6.352;2022-10-15T08:09:15;88.85;;;44.53;;
66628;SDS011;53532;53.084;6.352;2022-10-15T08:11:41;86.85;;;45.38;;
66628;SDS011;53532;53.084;6.352;2022-10-15T08:14:07;94.25;;;45.45;;
66628;SDS011;53532;53.084;6.352;2022-10-15T08:16:33;93.15;;;44.80;;
66628;SDS011;53532;53.084;6.352;2022-10-15T08:19:00;83.93;;;43.92;;
66628;SDS011;53532;53.084;6.352;2022-10-15T08:21:26;79.70;;;42.05;;
66628;SDS011;53532;53.084;6.352;2022-10-15T08:23:52;78.38;;;42.17;;
66628;SDS011;53532;53.084;6.352;2022-10-15T08:26:18;77.18;;;41.83;;
66628;SDS011;53532;53.084;6.352;2022-10-15T08:28:44;81.20;;;43.90;;
66628;SDS011;53532;53.084;6.352;2022-10-15T08:31:09;79.05;;;42.75;;
66628;SDS011;53532;53.084;6.352;2022-10-15T08:33:36;74.65;;;41.80;;
66628;SDS011;53532;53.084;6.352;2022-10-15T08:36:04;80.47;;;43.03;;
66628;SDS011;53532;53.084;6.352;2022-10-15T08:38:31;78.65;;;43.80;;
66628;SDS011;53532;53.084;6.352;2022-10-15T08:40:58;81.75;;;45.20;;
66628;SDS011;53532;53.084;6.352;2022-10-15T08:43:26;80.93;;;43.90;;
66628;SDS011;53532;53.084;6.352;2022-10-15T08:45:58;72.75;;;42.33;;
66628;SDS011;53532;53.084;6.352;2022-10-15T08:48:27;76.78;;;43.88;;
66628;SDS011;53532;53.084;6.352;2022-10-15T08:50:57;71.63;;;42.15;;
66628;SDS011;53532;53.084;6.352;2022-10-15T08:53:27;65.93;;;40.28;;
66628;SDS011;53532;53.084;6.352;2022-10-15T08:55:57;67.80;;;39.72;;
66628;SDS011;53532;53.084;6.352;2022-10-15T08:58:28;63.47;;;37.45;;
66628;SDS011;53532;53.084;6.352;2022-10-15T09:01:05;60.65;;;37.78;;
66628;SDS011;53532;53.084;6.352;2022-10-15T09:03:38;62.33;;;36.40;;
66628;SDS011;53532;53.084;6.352;2022-10-15T09:06:11;62.92;;;36.80;;
66628;SDS011;53532;53.084;6.352;2022-10-15T09:08:45;60.35;;;36.75;;
66628;SDS011;53532;53.084;6.352;2022-10-15T09:11:17;58.50;;;34.97;;
66628;SDS011;53532;53.084;6.352;2022-10-15T09:13:48;58.92;;;34.80;;
66628;SDS011;53532;53.084;6.352;2022-10-15T09:16:16;57.45;;;33.70;;
66628;SDS011;53532;53.084;6.352;2022-10-15T09:18:45;54.58;;;34.00;;
66628;SDS011;53532;53.084;6.352;2022-10-15T09:21:12;48.38;;;31.98;;
66628;SDS011;53532;53.084;6.352;2022-10-15T09:23:39;50.63;;;30.05;;
66628;SDS011;53532;53.084;6.352;2022-10-15T09:26:17;45.75;;;27.95;;
66628;SDS011;53532;53.084;6.352;2022-10-15T09:28:51;44.70;;;27.50;;
66628;SDS011;53532;53.084;6.352;2022-10-15T09:31:24;45.60;;;28.17;;
66628;SDS011;53532;53.084;6.352;2022-10-15T09:33:56;45.60;;;27.52;;
66628;SDS011;53532;53.084;6.352;2022-10-15T09:36:30;45.17;;;28.10;;
66628;SDS011;53532;53.084;6.352;2022-10-15T09:39:04;42.65;;;25.65;;
66628;SDS011;53532;53.084;6.352;2022-10-15T09:41:44;43.83;;;26.17;;
66628;SDS011;53532;53.084;6.352;2022-10-15T09:44:17;46.22;;;27.77;;
66628;SDS011;53532;53.084;6.352;2022-10-15T09:46:48;44.25;;;27.10;;
66628;SDS011;53532;53.084;6.352;2022-10-15T09:49:15;45.53;;;28.02;;
66628;SDS011;53532;53.084;6.352;2022-10-15T09:51:46;45.28;;;26.98;;
66628;SDS011;53532;53.084;6.352;2022-10-15T09:54:17;51.88;;;28.23;;
66628;SDS011;53532;53.084;6.352;2022-10-15T09:56:51;46.28;;;27.08;;
66628;SDS011;53532;53.084;6.352;2022-10-15T09:59:20;50.53;;;29.52;;
66628;SDS011;53532;53.084;6.352;2022-10-15T10:01:55;49.03;;;29.88;;
66628;SDS011;53532;53.084;6.352;2022-10-15T10:04:24;50.78;;;30.13;;
66628;SDS011;53532;53.084;6.352;2022-10-15T10:06:52;49.30;;;29.08;;
66628;SDS011;53532;53.084;6.352;2022-10-15T10:09:20;46.67;;;27.85;;
66628;SDS011;53532;53.084;6.352;2022-10-15T10:11:49;48.30;;;28.08;;
66628;SDS011;53532;53.084;6.352;2022-10-15T10:14:21;47.28;;;27.92;;
66628;SDS011;53532;53.084;6.352;2022-10-15T10:17:03;47.17;;;28.55;;
66628;SDS011;53532;53.084;6.352;2022-10-15T10:20:01;47.00;;;28.15;;
66628;SDS011;53532;53.084;6.352;2022-10-15T10:22:42;43.70;;;26.90;;
66628;SDS011;53532;53.084;6.352;2022-10-15T10:25:27;41.08;;;25.13;;
66628;SDS011;53532;53.084;6.352;2022-10-15T10:27:56;39.10;;;24.88;;
66628;SDS011;53532;53.084;6.352;2022-10-15T10:30:27;40.08;;;24.05;;
66628;SDS011;53532;53.084;6.352;2022-10-15T10:32:57;32.85;;;20.73;;
66628;SDS011;53532;53.084;6.352;2022-10-15T10:35:32;35.55;;;21.38;;
66628;SDS011;53532;53.084;6.352;2022-10-15T10:38:15;35.35;;;21.63;;
66628;SDS011;53532;53.084;6.352;2022-10-15T10:40:43;31.65;;;20.58;;
66628;SDS011;53532;53.084;6.352;2022-10-15T10:43:17;32.42;;;20.27;;
66628;SDS011;53532;53.084;6.352;2022-10-15T10:45:51;29.80;;;18.67;;
66628;SDS011;53532;53.084;6.352;2022-10-15T10:48:21;28.13;;;17.88;;
66628;SDS011;53532;53.084;6.352;2022-10-15T10:53:37;25.23;;;16.58;;
66628;SDS011;53532;53.084;6.352;2022-10-15T10:56:12;26.50;;;16.65;;
66628;SDS011;53532;53.084;6.352;2022-10-15T10:58:43;27.00;;;17.65;;
66628;SDS011;53532;53.084;6.352;2022-10-15T11:01:14;26.38;;;17.05;;
66628;SDS011;53532;53.084;6.352;2022-10-15T11:03:41;27.05;;;16.58;;
66628;SDS011;53532;53.084;6.352;2022-10-15T11:09:14;26.58;;;16.30;;
66628;SDS011;53532;53.084;6.352;2022-10-15T11:11:50;24.65;;;15.70;;
66628;SDS011;53532;53.084;6.352;2022-10-15T11:14:28;25.23;;;16.67;;
66628;SDS011;53532;53.084;6.352;2022-10-15T11:17:06;23.98;;;16.08;;
66628;SDS011;53532;53.084;6.352;2022-10-15T11:19:40;22.55;;;15.25;;
66628;SDS011;53532;53.084;6.352;2022-10-15T11:22:18;23.75;;;15.15;;
66628;SDS011;53532;53.084;6.352;2022-10-15T11:25:05;22.65;;;15.02;;
66628;SDS011;53532;53.084;6.352;2022-10-15T11:27:44;22.35;;;14.18;;
66628;SDS011;53532;53.084;6.352;2022-10-15T11:30:26;23.15;;;14.75;;
66628;SDS011;53532;53.084;6.352;2022-10-15T11:33:04;20.77;;;13.93;;
66628;SDS011;53532;53.084;6.352;2022-10-15T11:35:42;21.15;;;14.80;;
66628;SDS011;53532;53.084;6.352;2022-10-15T11:38:16;23.90;;;14.45;;
66628;SDS011;53532;53.084;6.352;2022-10-15T11:40:50;22.20;;;15.32;;
66628;SDS011;53532;53.084;6.352;2022-10-15T11:43:32;24.15;;;15.88;;
66628;SDS011;53532;53.084;6.352;2022-10-15T11:46:20;24.35;;;15.70;;
66628;SDS011;53532;53.084;6.352;2022-10-15T11:48:56;23.35;;;16.35;;
66628;SDS011;53532;53.084;6.352;2022-10-15T11:51:32;27.23;;;17.02;;
66628;SDS011;53532;53.084;6.352;2022-10-15T11:54:12;24.33;;;17.27;;
66628;SDS011;53532;53.084;6.352;2022-10-15T11:56:45;25.20;;;16.98;;
66628;SDS011;53532;53.084;6.352;2022-10-15T11:59:15;24.60;;;16.58;;
66628;SDS011;53532;53.084;6.352;2022-10-15T12:01:50;22.58;;;16.00;;
66628;SDS011;53532;53.084;6.352;2022-10-15T12:04:21;22.27;;;15.75;;
66628;SDS011;53532;53.084;6.352;2022-10-15T12:06:53;23.35;;;16.65;;
66628;SDS011;53532;53.084;6.352;2022-10-15T12:09:23;24.38;;;16.58;;
66628;SDS011;53532;53.084;6.352;2022-10-15T12:11:52;23.05;;;15.88;;
66628;SDS011;53532;53.084;6.352;2022-10-15T12:14:26;21.73;;;14.55;;
66628;SDS011;53532;53.084;6.352;2022-10-15T12:17:00;21.50;;;15.45;;
66628;SDS011;53532;53.084;6.352;2022-10-15T12:19:34;20.65;;;15.20;;
66628;SDS011;53532;53.084;6.352;2022-10-15T12:22:06;20.42;;;15.02;;
66628;SDS011;53532;53.084;6.352;2022-10-15T12:24:50;20.83;;;14.98;;
66628;SDS011;53532;53.084;6.352;2022-10-15T12:27:25;20.90;;;15.18;;
66628;SDS011;53532;53.084;6.352;2022-10-15T12:30:10;22.05;;;15.82;;
66628;SDS011;53532;53.084;6.352;2022-10-15T12:32:49;21.60;;;15.65;;
66628;SDS011;53532;53.084;6.352;2022-10-15T12:35:23;21.52;;;15.15;;
66628;SDS011;53532;53.084;6.352;2022-10-15T12:38:10;21.88;;;16.30;;
66628;SDS011;53532;53.084;6.352;2022-10-15T12:40:56;21.65;;;16.00;;
66628;SDS011;53532;53.084;6.352;2022-10-15T12:43:28;21.52;;;16.02;;
66628;SDS011;53532;53.084;6.352;2022-10-15T12:45:55;22.27;;;15.80;;
66628;SDS011;53532;53.084;6.352;2022-10-15T12:48:34;21.95;;;15.38;;
66628;SDS011;53532;53.084;6.352;2022-10-15T12:53:56;22.00;;;16.17;;
66628;SDS011;53532;53.084;6.352;2022-10-15T12:56:25;25.13;;;16.52;;
66628;SDS011;53532;53.084;6.352;2022-10-15T12:59:00;23.20;;;16.40;;
66628;SDS011;53532;53.084;6.352;2022-10-15T13:16:17;23.85;;;15.27;;
66628;SDS011;53532;53.084;6.352;2022-10-15T13:18:46;21.95;;;15.43;;
66628;SDS011;53532;53.084;6.352;2022-10-15T13:21:16;21.77;;;15.60;;
66628;SDS011;53532;53.084;6.352;2022-10-15T13:23:44;22.90;;;15.93;;
66628;SDS011;53532;53.084;6.352;2022-10-15T13:26:12;22.60;;;15.45;;
66628;SDS011;53532;53.084;6.352;2022-10-15T13:28:42;22.10;;;15.77;;
66628;SDS011;53532;53.084;6.352;2022-10-15T13:31:11;21.10;;;15.02;;
66628;SDS011;53532;53.084;6.352;2022-10-15T13:33:43;21.15;;;14.43;;
66628;SDS011;53532;53.084;6.352;2022-10-15T13:36:15;20.70;;;14.17;;
66628;SDS011;53532;53.084;6.352;2022-10-15T13:38:47;21.70;;;13.48;;
66628;SDS011;53532;53.084;6.352;2022-10-15T13:41:27;20.35;;;14.02;;
66628;SDS011;53532;53.084;6.352;2022-10-15T13:43:55;19.75;;;13.10;;
66628;SDS011;53532;53.084;6.352;2022-10-15T13:46:25;19.83;;;12.38;;
66628;SDS011;53532;53.084;6.352;2022-10-15T13:48:57;19.30;;;13.00;;
66628;SDS011;53532;53.084;6.352;2022-10-15T13:51:26;18.85;;;12.82;;
66628;SDS011;53532;53.084;6.352;2022-10-15T13:53:56;17.92;;;11.93;;
66628;SDS011;53532;53.084;6.352;2022-10-15T13:56:24;18.42;;;12.48;;
66628;SDS011;53532;53.084;6.352;2022-10-15T13:58:51;18.67;;;12.90;;
66628;SDS011;53532;53.084;6.352;2022-10-15T14:01:19;19.58;;;12.68;;
66628;SDS011;53532;53.084;6.352;2022-10-15T14:03:47;18.38;;;12.15;;
66628;SDS011;53532;53.084;6.352;2022-10-15T14:06:18;18.70;;;11.85;;
66628;SDS011;53532;53.084;6.352;2022-10-15T14:08:45;17.27;;;11.82;;
66628;SDS011;53532;53.084;6.352;2022-10-15T14:11:13;19.08;;;11.25;;
66628;SDS011;53532;53.084;6.352;2022-10-15T14:13:42;15.30;;;11.30;;
66628;SDS011;53532;53.084;6.352;2022-10-15T14:16:11;16.92;;;11.40;;
66628;SDS011;53532;53.084;6.352;2022-10-15T14:18:40;16.80;;;10.55;;
66628;SDS011;53532;53.084;6.352;2022-10-15T14:21:10;15.85;;;10.60;;
66628;SDS011;53532;53.084;6.352;2022-10-15T14:23:38;17.25;;;10.88;;
66628;SDS011;53532;53.084;6.352;2022-10-15T14:26:05;14.98;;;10.18;;
66628;SDS011;53532;53.084;6.352;2022-10-15T14:28:33;13.88;;;9.85;;
66628;SDS011;53532;53.084;6.352;2022-10-15T14:30:59;15.10;;;10.13;;
66628;SDS011;53532;53.084;6.352;2022-10-15T14:33:30;14.65;;;10.02;;
66628;SDS011;53532;53.084;6.352;2022-10-15T14:36:10;14.73;;;9.77;;
66628;SDS011;53532;53.084;6.352;2022-10-15T14:38:39;13.30;;;9.25;;
66628;SDS011;53532;53.084;6.352;2022-10-15T14:41:17;12.85;;;8.80;;
66628;SDS011;53532;53.084;6.352;2022-10-15T14:43:52;12.73;;;8.88;;
66628;SDS011;53532;53.084;6.352;2022-10-15T14:46:32;12.02;;;8.10;;
66628;SDS011;53532;53.084;6.352;2022-10-15T14:49:02;12.95;;;7.80;;
66628;SDS011;53532;53.084;6.352;2022-10-15T14:51:28;12.40;;;8.07;;
66628;SDS011;53532;53.084;6.352;2022-10-15T14:53:56;11.45;;;7.53;;
66628;SDS011;53532;53.084;6.352;2022-10-15T14:56:23;10.82;;;7.40;;
66628;SDS011;53532;53.084;6.352;2022-10-15T14:58:54;11.50;;;7.47;;
66628;SDS011;53532;53.084;6.352;2022-10-15T15:01:22;10.27;;;6.95;;